createdAt,value
2015-04-05T17:18:08.685Z,96041
2015-04-05T17:18:26.951Z,96043
2015-04-05T17:20:21.284Z,96040
2015-04-05T17:20:40.097Z,96044
2015-04-05T17:20:58.534Z,96051
2015-04-05T17:21:17.115Z,96048
2015-04-05T17:21:35.787Z,96046
2015-04-05T17:21:54.225Z,96041
2015-04-05T17:22:12.725Z,96041
2015-04-05T17:22:31.117Z,96042
2015-04-05T17:22:49.523Z,96045
2015-04-05T17:23:07.914Z,96039
2015-04-05T17:23:26.494Z,96045
2015-04-05T17:23:44.994Z,96048
2015-04-05T17:24:03.416Z,96042
2015-04-05T17:24:21.809Z,96048
2015-04-05T17:24:40.277Z,96050
2015-04-05T17:24:58.699Z,96050
2015-04-05T17:25:17.106Z,96053
2015-04-05T17:25:35.577Z,96053
2015-04-05T17:25:53.999Z,96052
2015-04-05T17:26:12.437Z,96052
2015-04-05T17:26:30.877Z,96049
2015-04-05T17:26:49.299Z,96057
2015-04-05T17:27:27.004Z,96048
2015-04-05T17:27:45.410Z,96051
2015-04-05T17:28:03.848Z,96059
2015-04-05T17:28:22.270Z,96053
2015-04-05T17:28:40.648Z,96050
2015-04-05T17:28:59.163Z,96053
2015-04-05T17:29:17.663Z,96050
2015-04-05T17:29:36.071Z,96064
2015-04-05T17:29:54.477Z,96050
2015-04-05T17:30:12.868Z,96052
2015-04-05T17:30:31.402Z,96058
2015-04-05T17:30:49.808Z,96058
2015-04-05T17:31:08.277Z,96055
2015-04-05T17:31:26.699Z,96061
2015-04-05T17:31:45.107Z,96055
2015-04-05T17:32:03.544Z,96055
2015-04-05T17:32:21.951Z,96058
2015-04-05T17:32:40.390Z,96055
2015-04-05T17:32:58.656Z,96049
2015-04-05T17:33:17.265Z,96055
2015-04-05T17:33:35.706Z,96055
2015-04-05T17:33:54.128Z,96057
2015-04-05T17:34:12.549Z,96063
2015-04-05T17:34:30.940Z,96054
2015-04-05T17:34:49.459Z,96065
2015-04-05T17:35:07.974Z,96068
2015-04-05T17:35:26.396Z,96059
2015-04-05T17:35:44.819Z,96062
2015-04-05T17:36:03.225Z,96065
2015-04-05T17:36:21.632Z,96068
2015-04-05T17:36:40.041Z,96065
2015-04-05T17:36:58.447Z,96062
2015-04-05T17:37:16.916Z,96073
2015-04-05T17:37:35.306Z,96070
2015-04-05T17:37:53.777Z,96062
2015-04-05T17:38:12.324Z,96065
2015-04-05T17:38:30.793Z,96073
2015-04-05T17:38:49.436Z,96068
2015-04-05T17:39:07.999Z,96062
2015-04-05T17:39:26.390Z,96056
2015-04-05T17:39:44.829Z,96062
2015-04-05T17:40:03.376Z,96062
2015-04-05T17:40:21.829Z,96064
2015-04-05T17:40:40.267Z,96064
2015-04-05T17:40:58.691Z,96064
2015-04-05T17:41:17.129Z,96064
2015-04-05T17:41:35.535Z,96062
2015-04-05T17:41:54.021Z,96070
2015-04-05T17:42:12.630Z,96059
2015-04-05T17:42:31.521Z,96070
2015-04-05T17:42:49.930Z,96058
2015-04-05T17:43:08.555Z,96067
2015-04-05T17:43:27.024Z,96061
2015-04-05T17:43:45.524Z,96070
2015-04-05T17:44:04.027Z,96061
2015-04-05T17:44:22.417Z,96061
2015-04-05T17:44:40.917Z,96072
2015-04-05T17:44:59.311Z,96058
2015-04-05T17:45:17.858Z,96069
2015-04-05T17:45:36.389Z,96061
2015-04-05T17:45:55.046Z,96075
2015-04-05T17:46:13.437Z,96058
2015-04-05T17:46:31.968Z,96061
2015-04-05T17:46:50.593Z,96072
2015-04-05T17:47:09.112Z,96061
2015-04-05T17:47:27.643Z,96069
2015-04-05T17:47:46.034Z,96061
2015-04-05T17:48:04.661Z,96069
2015-04-05T17:48:23.098Z,96072
2015-04-05T17:48:41.645Z,96069
2015-04-05T17:49:00.067Z,96066
2015-04-05T17:49:18.523Z,96071
2015-04-05T17:49:36.992Z,96074
2015-04-05T17:49:55.523Z,96069
2015-04-05T17:50:13.947Z,96069
2015-04-05T17:50:32.337Z,96068
2015-04-05T17:50:50.744Z,96077
2015-04-05T17:51:09.214Z,96071
2015-04-05T17:51:27.636Z,96071
2015-04-05T17:51:46.058Z,96074
2015-04-05T17:52:04.574Z,96069
2015-04-05T17:52:22.966Z,96072
2015-04-05T17:52:41.420Z,96075
2015-04-05T17:52:59.873Z,96069
2015-04-05T17:53:18.266Z,96078
2015-04-05T17:53:36.704Z,96078
2015-04-05T17:53:55.157Z,96067
2015-04-05T17:54:13.690Z,96075
2015-04-05T17:54:32.175Z,96086
2015-04-05T17:54:50.612Z,96080
2015-04-05T17:55:09.146Z,96080
2015-04-05T17:55:27.584Z,96078
2015-04-05T17:55:46.099Z,96070
2015-04-05T17:56:04.521Z,96070
2015-04-05T17:56:22.945Z,96070
2015-04-05T17:56:41.445Z,96078
2015-04-05T17:56:59.867Z,96076
2015-04-05T17:57:18.369Z,96070
2015-04-05T17:57:37.041Z,96076
2015-04-05T17:57:55.525Z,96078
2015-04-05T17:58:13.949Z,96078
2015-04-05T17:58:32.449Z,96086
2015-04-05T17:58:50.840Z,96083
2015-04-05T17:59:09.246Z,96078
2015-04-05T17:59:27.655Z,96073
2015-04-05T17:59:46.046Z,96078
2015-04-05T18:00:04.577Z,96071
2015-04-05T18:00:23.174Z,96074
2015-04-05T18:00:41.861Z,96084
2015-04-05T18:01:00.299Z,96084
2015-04-05T18:01:18.738Z,96078
2015-04-05T18:01:37.285Z,96087
2015-04-05T18:01:55.723Z,96077
2015-04-05T18:02:14.129Z,96079
2015-04-05T18:02:32.819Z,96081
2015-04-05T18:02:51.272Z,96081
2015-04-05T18:03:09.740Z,96077
2015-04-05T18:03:28.461Z,96079
2015-04-05T18:03:46.852Z,96087
2015-04-05T18:04:05.242Z,96087
2015-04-05T18:04:23.651Z,96079
2015-04-05T18:04:42.151Z,96077
2015-04-05T18:05:00.557Z,96078
2015-04-05T18:05:18.963Z,96084
2015-04-05T18:05:37.607Z,96074
2015-04-05T18:05:56.326Z,96077
2015-04-05T18:06:14.810Z,96079
2015-04-05T18:06:33.266Z,96079
2015-04-05T18:06:51.672Z,96082
2015-04-05T18:07:10.141Z,96087
2015-04-05T18:07:28.672Z,96082
2015-04-05T18:07:47.190Z,96079
2015-04-05T18:08:05.627Z,96085
2015-04-05T18:08:24.190Z,96093
2015-04-05T18:08:42.630Z,96085
2015-04-05T18:09:01.287Z,96090
2015-04-05T18:09:19.802Z,96090
2015-04-05T18:09:38.195Z,96087
2015-04-05T18:09:56.601Z,96088
2015-04-05T18:10:15.070Z,96088
2015-04-05T18:10:33.619Z,96082
2015-04-05T18:10:52.119Z,96094
2015-04-05T18:11:10.603Z,96088
2015-04-05T18:11:29.103Z,96088
2015-04-05T18:11:47.496Z,96080
2015-04-05T18:12:05.918Z,96088
2015-04-05T18:12:24.324Z,96088
2015-04-05T18:12:42.732Z,96078
2015-04-05T18:13:01.154Z,96089
2015-04-05T18:13:19.685Z,96083
2015-04-05T18:13:38.079Z,96094
2015-04-05T18:13:56.579Z,96086
2015-04-05T18:14:15.095Z,96083
2015-04-05T18:14:33.673Z,96094
2015-04-05T18:14:52.253Z,96092
2015-04-05T18:15:10.659Z,96086
2015-04-05T18:15:29.159Z,96086
2015-04-05T18:15:47.646Z,96095
2015-04-05T18:16:06.100Z,96089
2015-04-05T18:16:24.506Z,96095
2015-04-05T18:16:43.039Z,96092
2015-04-05T18:17:01.711Z,96100
2015-04-05T18:17:20.117Z,96095
2015-04-05T18:17:38.510Z,96089
2015-04-05T18:17:57.072Z,96086
2015-04-05T18:18:15.463Z,96092
2015-04-05T18:18:33.869Z,96092
2015-04-05T18:18:52.387Z,96095
2015-04-05T18:19:10.777Z,96087
2015-04-05T18:19:29.434Z,96093
2015-04-05T18:19:47.984Z,96087
2015-04-05T18:20:06.421Z,96099
2015-04-05T18:20:24.827Z,96090
2015-04-05T18:20:43.220Z,96093
2015-04-05T18:21:01.673Z,96093
2015-04-05T18:21:20.173Z,96091
2015-04-05T18:21:38.611Z,96099
2015-04-05T18:21:57.113Z,96093
2015-04-05T18:22:15.628Z,96088
2015-04-05T18:22:34.050Z,96099
2015-04-05T18:22:52.491Z,96100
2015-04-05T18:23:11.084Z,96094
2015-04-05T18:23:29.725Z,96094
2015-04-05T18:23:48.165Z,96094
2015-04-05T18:24:06.634Z,96094
2015-04-05T18:24:25.025Z,96098
2015-04-05T18:24:43.494Z,96098
2015-04-05T18:25:01.917Z,96109
2015-04-05T18:25:20.339Z,96101
2015-04-05T18:25:38.777Z,96106
2015-04-05T18:25:57.233Z,96101
2015-04-05T18:26:15.624Z,96093
2015-04-05T18:26:34.077Z,96104
2015-04-05T18:26:52.514Z,96101
2015-04-05T18:27:10.922Z,96099
2015-04-05T18:27:29.329Z,96110
2015-04-05T18:27:47.844Z,96102
2015-04-05T18:28:06.268Z,96102
2015-04-05T18:28:24.674Z,96102
2015-04-05T18:28:43.174Z,96099
2015-04-05T18:29:01.693Z,96099
2015-04-05T18:29:20.256Z,96103
2015-04-05T18:29:38.787Z,96097
2015-04-05T18:29:57.334Z,96103
2015-04-05T18:30:15.758Z,96103
2015-04-05T18:30:34.195Z,96105
2015-04-05T18:30:52.617Z,96106
2015-04-05T18:31:11.056Z,96109
2015-04-05T18:31:29.463Z,96111
2015-04-05T18:31:47.291Z,96109
2015-04-05T18:32:05.808Z,96117
2015-04-05T18:32:24.402Z,96111
2015-04-05T18:32:42.855Z,96106
2015-04-05T18:33:01.308Z,96106
2015-04-05T18:33:19.702Z,96109
2015-04-05T18:33:38.124Z,96112
2015-04-05T18:33:56.546Z,96109
2015-04-05T18:34:14.985Z,96109
2015-04-05T18:34:33.642Z,96109
2015-04-05T18:34:52.235Z,96112
2015-04-05T18:35:10.675Z,96109
2015-04-05T18:35:29.081Z,96123
2015-04-05T18:35:47.737Z,96118
2015-04-05T18:36:06.178Z,96110
2015-04-05T18:36:24.631Z,96107
2015-04-05T18:36:43.068Z,96107
2015-04-05T18:37:01.522Z,96099
2015-04-05T18:37:20.086Z,96113
2015-04-05T18:37:38.586Z,96104
2015-04-05T18:37:57.102Z,96107
2015-04-05T18:38:15.855Z,96110
2015-04-05T18:38:34.527Z,96108
2015-04-05T18:38:53.042Z,96110
2015-04-05T18:39:11.482Z,96116
2015-04-05T18:39:29.888Z,96111
2015-04-05T18:39:48.497Z,96122
2015-04-05T18:40:07.122Z,96105
2015-04-05T18:40:25.562Z,96111
2015-04-05T18:40:44.046Z,96117
2015-04-05T18:41:02.812Z,96120
2015-04-05T18:41:21.580Z,96106
2015-04-05T18:41:39.987Z,96109
2015-04-05T18:41:58.549Z,96109
2015-04-05T18:42:16.989Z,96106
2015-04-05T18:42:35.395Z,96115
2015-04-05T18:42:53.817Z,96109
2015-04-05T18:43:12.192Z,96118
2015-04-05T18:43:30.631Z,96104
2015-04-05T18:43:49.100Z,96109
2015-04-05T18:44:07.584Z,96109
2015-04-05T18:44:25.994Z,96112
2015-04-05T18:44:44.416Z,96112
2015-04-05T18:45:03.009Z,96109
2015-04-05T18:45:21.478Z,96109
2015-04-05T18:45:39.950Z,96104
2015-04-05T18:45:58.481Z,96110
2015-04-05T18:46:16.887Z,96112
2015-04-05T18:46:35.483Z,96113
2015-04-05T18:46:53.889Z,96113
2015-04-05T18:47:12.436Z,96110
2015-04-05T18:47:30.907Z,96102
2015-04-05T18:47:49.298Z,96110
2015-04-05T18:48:07.844Z,96113
2015-04-05T18:48:26.454Z,96113
2015-04-05T18:48:44.926Z,96116
2015-04-05T18:49:03.363Z,96113
2015-04-05T18:49:21.754Z,96111
2015-04-05T18:49:40.209Z,96114
2015-04-05T18:49:58.615Z,96108
2015-04-05T18:50:17.084Z,96111
2015-04-05T18:50:35.492Z,96108
2015-04-05T18:50:54.008Z,96108
2015-04-05T18:51:12.476Z,96109
2015-04-05T18:51:31.089Z,96117
2015-04-05T18:51:49.495Z,96109
2015-04-05T18:52:08.042Z,96114
2015-04-05T18:52:26.667Z,96117
2015-04-05T18:52:45.153Z,96117
2015-04-05T18:53:03.575Z,96120
2015-04-05T18:53:22.075Z,96112
2015-04-05T18:53:40.624Z,96112
2015-04-05T18:53:59.233Z,96115
2015-04-05T18:54:17.937Z,96104
2015-04-05T18:54:36.393Z,96118
2015-04-05T18:54:55.174Z,96115
2015-04-05T18:55:13.705Z,96118
2015-04-05T18:55:32.363Z,96113
2015-04-05T18:55:50.973Z,96110
2015-04-05T18:56:09.629Z,96118
2015-04-05T18:56:28.160Z,96113
2015-04-05T18:56:46.569Z,96116
2015-04-05T18:57:04.990Z,96124
2015-04-05T18:57:23.772Z,96116
2015-04-05T18:57:42.164Z,96124
2015-04-05T18:58:00.836Z,96110
2015-04-05T18:58:19.383Z,96119
2015-04-05T18:58:37.902Z,96116
2015-04-05T18:58:56.527Z,96111
2015-04-05T18:59:15.152Z,96114
2015-04-05T18:59:33.792Z,96108
2015-04-05T18:59:52.216Z,96116
2015-04-05T19:00:10.732Z,96116
2015-04-05T19:00:29.138Z,96114
2015-04-05T19:00:47.531Z,96120
2015-04-05T19:01:05.999Z,96111
2015-04-05T19:01:24.484Z,96114
2015-04-05T19:01:42.924Z,96109
2015-04-05T19:02:01.674Z,96111
2015-04-05T19:02:20.096Z,96114
2015-04-05T19:02:38.549Z,96114
2015-04-05T19:02:56.958Z,96106
2015-04-05T19:03:15.520Z,96109
2015-04-05T19:03:34.004Z,96115
2015-04-05T19:03:52.538Z,96115
2015-04-05T19:04:10.975Z,96120
2015-04-05T19:04:29.678Z,96112
2015-04-05T19:04:48.213Z,96115
2015-04-05T19:05:06.713Z,96118
2015-04-05T19:05:25.134Z,96118
2015-04-05T19:05:43.744Z,96115
2015-04-05T19:06:02.277Z,96118
2015-04-05T19:06:20.730Z,96112
2015-04-05T19:06:39.183Z,96115
2015-04-05T19:06:57.686Z,96118
2015-04-05T19:07:16.077Z,96116
2015-04-05T19:07:34.483Z,96115
2015-04-05T19:07:53.141Z,96118
2015-04-05T19:08:11.548Z,96121
2015-04-05T19:08:29.938Z,96113
2015-04-05T19:08:48.376Z,96118
2015-04-05T19:09:06.815Z,96116
2015-04-05T19:09:25.472Z,96110
2015-04-05T19:09:43.893Z,96116
2015-04-05T19:10:02.506Z,96122
2015-04-05T19:10:20.896Z,96119
2015-04-05T19:10:39.521Z,96111
2015-04-05T19:10:58.164Z,96116
2015-04-05T19:11:16.805Z,96114
2015-04-05T19:11:35.258Z,96119
2015-04-05T19:11:54.089Z,96117
2015-04-05T19:12:12.526Z,96117
2015-04-05T19:12:31.058Z,96122
2015-04-05T19:12:48.886Z,96117
2015-04-05T19:13:07.435Z,96125
2015-04-05T19:13:25.841Z,96125
2015-04-05T19:13:44.482Z,96128
2015-04-05T19:14:02.922Z,96123
2015-04-05T19:14:21.375Z,96128
2015-04-05T19:14:39.828Z,96123
2015-04-05T19:14:58.345Z,96126
2015-04-05T19:15:16.767Z,96126
2015-04-05T19:15:35.314Z,96126
2015-04-05T19:15:54.001Z,96131
2015-04-05T19:16:12.551Z,96120
2015-04-05T19:16:31.192Z,96129
2015-04-05T19:16:49.692Z,96120
2015-04-05T19:17:08.131Z,96132
2015-04-05T19:17:26.678Z,96137
2015-04-05T19:17:45.225Z,96134
2015-04-05T19:18:03.869Z,96129
2015-04-05T19:18:22.353Z,96132
2015-04-05T19:18:40.978Z,96129
2015-04-05T19:18:59.759Z,96129
2015-04-05T19:19:18.261Z,96132
2015-04-05T19:19:36.714Z,96126
2015-04-05T19:19:55.464Z,96124
2015-04-05T19:20:13.904Z,96129
2015-04-05T19:20:32.607Z,96135
2015-04-05T19:20:51.357Z,96135
2015-04-05T19:21:10.141Z,96129
2015-04-05T19:21:29.110Z,96132
2015-04-05T19:21:47.891Z,96130
2015-04-05T19:22:06.284Z,96127
2015-04-05T19:22:24.940Z,96127
2015-04-05T19:22:43.331Z,96130
2015-04-05T19:23:01.940Z,96130
2015-04-05T19:23:20.396Z,96138
2015-04-05T19:23:38.990Z,96124
2015-04-05T19:23:57.631Z,96136
2015-04-05T19:24:16.382Z,96133
2015-04-05T19:24:34.960Z,96136
2015-04-05T19:24:53.444Z,96127
2015-04-05T19:25:12.181Z,96139
2015-04-05T19:25:30.619Z,96133
2015-04-05T19:25:49.400Z,96136
2015-04-05T19:26:07.791Z,96139
2015-04-05T19:26:26.544Z,96139
2015-04-05T19:26:45.013Z,96139
2015-04-05T19:27:03.669Z,96133
2015-04-05T19:27:22.311Z,96136
2015-04-05T19:27:40.796Z,96130
2015-04-05T19:27:59.327Z,96130
2015-04-05T19:28:17.923Z,96133
2015-04-05T19:28:36.517Z,96145
2015-04-05T19:28:55.157Z,96139
2015-04-05T19:29:13.673Z,96145
2015-04-05T19:29:32.098Z,96136
2015-04-05T19:29:50.723Z,96145
2015-04-05T19:30:09.285Z,96142
2015-04-05T19:30:28.130Z,96139
2015-04-05T19:30:46.536Z,96136
2015-04-05T19:31:05.005Z,96139
2015-04-05T19:31:23.414Z,96142
2015-04-05T19:31:41.883Z,96142
2015-04-05T19:32:00.367Z,96151
2015-04-05T19:32:18.932Z,96148
2015-04-05T19:32:37.354Z,96151
2015-04-05T19:32:55.916Z,96145
2015-04-05T19:33:14.526Z,96148
2015-04-05T19:33:32.935Z,96145
2015-04-05T19:33:51.716Z,96148
2015-04-05T19:34:10.325Z,96143
2015-04-05T19:34:28.828Z,96151
2015-04-05T19:34:47.828Z,96143
2015-04-05T19:35:06.266Z,96151
2015-04-05T19:35:24.674Z,96148
2015-04-05T19:35:43.299Z,96146
2015-04-05T19:36:01.737Z,96146
2015-04-05T19:36:20.190Z,96152
2015-04-05T19:36:38.567Z,96154
2015-04-05T19:36:57.254Z,96149
2015-04-05T19:37:16.973Z,96154
2015-04-05T19:37:35.444Z,96154
2015-04-05T19:37:54.147Z,96160
2015-04-05T19:38:12.538Z,96157
2015-04-05T19:38:31.056Z,96157
2015-04-05T19:38:49.525Z,96149
2015-04-05T19:39:07.978Z,96155
2015-04-05T19:39:26.619Z,96149
2015-04-05T19:39:44.855Z,96155
2015-04-05T19:40:03.339Z,96149
2015-04-05T19:40:21.761Z,96155
2015-04-05T19:40:40.264Z,96155
2015-04-05T19:40:58.764Z,96158
2015-04-05T19:41:17.233Z,96149
2015-04-05T19:41:35.719Z,96163
2015-04-05T19:41:54.173Z,96166
2015-04-05T19:42:12.579Z,96166
2015-04-05T19:42:31.063Z,96158
2015-04-05T19:42:49.488Z,96158
2015-04-05T19:43:07.972Z,96161
2015-04-05T19:43:26.394Z,96163
2015-04-05T19:43:44.818Z,96163
2015-04-05T19:44:03.474Z,96161
2015-04-05T19:44:21.912Z,96161
2015-04-05T19:44:40.303Z,96158
2015-04-05T19:44:58.742Z,96166
2015-04-05T19:45:17.164Z,96166
2015-04-05T19:45:35.680Z,96164
2015-04-05T19:45:54.089Z,96164
2015-04-05T19:46:12.495Z,96161
2015-04-05T19:46:31.104Z,96164
2015-04-05T19:46:49.543Z,96161
2015-04-05T19:47:08.074Z,96164
2015-04-05T19:47:26.512Z,96164
2015-04-05T19:47:44.996Z,96167
2015-04-05T19:48:03.546Z,96172
2015-04-05T19:48:21.983Z,96167
2015-04-05T19:48:40.468Z,96175
2015-04-05T19:48:58.877Z,96167
2015-04-05T19:49:17.283Z,96172
2015-04-05T19:49:35.721Z,96167
2015-04-05T19:49:54.285Z,96167
2015-04-05T19:50:12.692Z,96172
2015-04-05T19:50:31.207Z,96172
2015-04-05T19:50:49.600Z,96172
2015-04-05T19:51:08.037Z,96167
2015-04-05T19:51:26.522Z,96172
2015-04-05T19:51:44.975Z,96172
2015-04-05T19:52:03.555Z,96181
2015-04-05T19:52:22.164Z,96170
2015-04-05T19:52:40.571Z,96178
2015-04-05T19:52:58.338Z,96167
2015-04-05T19:53:16.760Z,96173
2015-04-05T19:53:34.510Z,96175
2015-04-05T19:53:52.935Z,96170
2015-04-05T19:54:11.497Z,96173
2015-04-05T19:54:29.997Z,96176
2015-04-05T19:54:48.482Z,96176
2015-04-05T19:55:06.921Z,96168
2015-04-05T19:55:25.468Z,96179
2015-04-05T19:55:44.203Z,96174
2015-04-05T19:56:02.659Z,96173
2015-04-05T19:56:21.081Z,96179
2015-04-05T19:56:39.706Z,96176
2015-04-05T19:56:58.254Z,96187
2015-04-05T19:57:16.661Z,96176
2015-04-05T19:57:35.067Z,96176
2015-04-05T19:57:53.520Z,96173
2015-04-05T19:58:12.101Z,96173
2015-04-05T19:58:30.523Z,96184
2015-04-05T19:58:48.929Z,96172
2015-04-05T19:59:07.353Z,96181
2015-04-05T19:59:25.853Z,96186
2015-04-05T19:59:44.369Z,96181
2015-04-05T20:00:02.855Z,96178
2015-04-05T20:00:21.277Z,96175
2015-04-05T20:00:39.683Z,96183
2015-04-05T20:00:58.261Z,96178
2015-04-05T20:01:16.749Z,96183
2015-04-05T20:01:35.171Z,96172
2015-04-05T20:01:53.577Z,96183
2015-04-05T20:02:12.063Z,96172
2015-04-05T20:02:30.548Z,96186
2015-04-05T20:02:48.970Z,96174
2015-04-05T20:03:07.379Z,96172
2015-04-05T20:03:25.801Z,96174
2015-04-05T20:03:44.316Z,96172
2015-04-05T20:04:02.738Z,96180
2015-04-05T20:04:21.146Z,96174
2015-04-05T20:04:39.568Z,96177
2015-04-05T20:04:57.990Z,96177
2015-04-05T20:05:16.617Z,96177
2015-04-05T20:05:35.070Z,96166
2015-04-05T20:05:53.492Z,96174
2015-04-05T20:06:11.914Z,96174
2015-04-05T20:06:30.370Z,96169
2015-04-05T20:06:48.776Z,96166
2015-04-05T20:07:07.214Z,96177
2015-04-05T20:07:25.653Z,96177
2015-04-05T20:07:44.341Z,96163
2015-04-05T20:08:02.732Z,96172
2015-04-05T20:08:21.187Z,96171
2015-04-05T20:08:39.640Z,96174
2015-04-05T20:08:58.062Z,96169
2015-04-05T20:09:16.484Z,96172
2015-04-05T20:09:34.893Z,96174
2015-04-05T20:09:53.455Z,96177
2015-04-05T20:10:11.908Z,96172
2015-04-05T20:10:30.379Z,96172
2015-04-05T20:10:48.848Z,96172
2015-04-05T20:11:07.301Z,96163
2015-04-05T20:11:25.820Z,96180
2015-04-05T20:11:44.210Z,96175
2015-04-05T20:12:02.679Z,96175
2015-04-05T20:12:21.103Z,96180
2015-04-05T20:12:39.525Z,96178
2015-04-05T20:12:57.931Z,96178
2015-04-05T20:13:16.369Z,96178
2015-04-05T20:13:34.871Z,96172
2015-04-05T20:13:53.292Z,96172
2015-04-05T20:14:11.714Z,96178
2015-04-05T20:14:30.123Z,96181
2015-04-05T20:14:48.544Z,96164
2015-04-05T20:15:07.013Z,96181
2015-04-05T20:15:25.703Z,96181
2015-04-05T20:15:44.125Z,96175
2015-04-05T20:16:02.546Z,96167
2015-04-05T20:16:21.000Z,96172
2015-04-05T20:16:39.409Z,96181
2015-04-05T20:16:57.878Z,96175
2015-04-05T20:17:16.299Z,96181
2015-04-05T20:17:34.693Z,96175
2015-04-05T20:17:53.365Z,96173
2015-04-05T20:18:11.849Z,96184
2015-04-05T20:18:30.258Z,96178
2015-04-05T20:18:48.758Z,96167
2015-04-05T20:19:07.148Z,96178
2015-04-05T20:19:25.523Z,96176
2015-04-05T20:19:43.931Z,96176
2015-04-05T20:20:02.353Z,96176
2015-04-05T20:20:20.760Z,96170
2015-04-05T20:20:39.496Z,96173
2015-04-05T20:20:58.074Z,96176
2015-04-05T20:21:16.574Z,96171
2015-04-05T20:21:34.967Z,96187
2015-04-05T20:21:53.764Z,96187
2015-04-05T20:22:12.310Z,96182
2015-04-05T20:22:30.813Z,96185
2015-04-05T20:22:49.251Z,96179
2015-04-05T20:23:07.892Z,96182
2015-04-05T20:23:26.329Z,96185
2015-04-05T20:23:44.926Z,96180
2015-04-05T20:24:03.316Z,96185
2015-04-05T20:24:21.801Z,96185
2015-04-05T20:24:40.272Z,96177
2015-04-05T20:24:58.662Z,96183
2015-04-05T20:25:17.068Z,96183
2015-04-05T20:25:35.537Z,96177
2015-04-05T20:25:53.945Z,96177
2015-04-05T20:26:12.945Z,96177
2015-04-05T20:26:31.367Z,96191
2015-04-05T20:26:49.777Z,96178
2015-04-05T20:27:08.167Z,96181
2015-04-05T20:27:26.652Z,96180
2015-04-05T20:27:45.060Z,96178
2015-04-05T20:28:03.482Z,96178
2015-04-05T20:28:21.966Z,96181
2015-04-05T20:28:40.482Z,96183
2015-04-05T20:28:58.891Z,96184
2015-04-05T20:29:17.360Z,96181
2015-04-05T20:29:35.844Z,96198
2015-04-05T20:29:54.362Z,96175
2015-04-05T20:30:12.799Z,96184
2015-04-05T20:30:31.268Z,96178
2015-04-05T20:30:49.721Z,96184
2015-04-05T20:31:08.146Z,96181
2015-04-05T20:31:26.552Z,96181
2015-04-05T20:31:44.990Z,96192
2015-04-05T20:32:03.398Z,96190
2015-04-05T20:32:21.835Z,96179
2015-04-05T20:32:40.304Z,96190
2015-04-05T20:32:58.900Z,96184
2015-04-05T20:33:17.306Z,96176
2015-04-05T20:33:35.728Z,96179
2015-04-05T20:33:54.384Z,96187
2015-04-05T20:34:12.902Z,96182
2015-04-05T20:34:31.324Z,96190
2015-04-05T20:34:49.746Z,96187
2015-04-05T20:35:08.155Z,96193
2015-04-05T20:35:26.592Z,96193
2015-04-05T20:35:44.999Z,96179
2015-04-05T20:36:03.407Z,96176
2015-04-05T20:36:21.798Z,96185
2015-04-05T20:36:40.626Z,96185
2015-04-05T20:36:59.051Z,96190
2015-04-05T20:37:17.457Z,96185
2015-04-05T20:37:35.863Z,96182
2015-04-05T20:37:54.379Z,96188
2015-04-05T20:38:12.787Z,96188
2015-04-05T20:38:31.224Z,96180
2015-04-05T20:38:49.646Z,96180
2015-04-05T20:39:08.086Z,96185
2015-04-05T20:39:26.508Z,96191
2015-04-05T20:39:44.898Z,96185
2015-04-05T20:40:03.401Z,96185
2015-04-05T20:40:22.011Z,96188
2015-04-05T20:40:40.417Z,96180
2015-04-05T20:40:58.854Z,96180
2015-04-05T20:41:17.435Z,96191
2015-04-05T20:41:35.856Z,96180
2015-04-05T20:41:54.310Z,96180
2015-04-05T20:42:12.796Z,96191
2015-04-05T20:42:31.421Z,96180
2015-04-05T20:42:49.827Z,96180
2015-04-05T20:43:08.329Z,96189
2015-04-05T20:43:27.001Z,96194
2015-04-05T20:43:45.454Z,96180
2015-04-05T20:44:03.892Z,96194
2015-04-05T20:44:22.328Z,96186
2015-04-05T20:44:40.749Z,96186
2015-04-05T20:44:59.187Z,96189
2015-04-05T20:45:17.659Z,96180
2015-04-05T20:45:36.050Z,96186
2015-04-05T20:45:54.472Z,96180
2015-04-05T20:46:12.956Z,96186
2015-04-05T20:46:31.472Z,96192
2015-04-05T20:46:49.925Z,96189
2015-04-05T20:47:08.347Z,96183
2015-04-05T20:47:26.802Z,96186
2015-04-05T20:47:45.427Z,96189
2015-04-05T20:48:03.865Z,96189
2015-04-05T20:48:22.302Z,96181
2015-04-05T20:48:40.724Z,96186
2015-04-05T20:48:59.177Z,96195
2015-04-05T20:49:17.552Z,96184
2015-04-05T20:49:35.966Z,96192
2015-04-05T20:49:54.435Z,96192
2015-04-05T20:50:12.857Z,96192
2015-04-05T20:50:31.349Z,96187
2015-04-05T20:50:49.755Z,96184
2015-04-05T20:51:08.177Z,96187
2015-04-05T20:51:26.583Z,96187
2015-04-05T20:51:45.076Z,96190
2015-04-05T20:52:03.545Z,96187
2015-04-05T20:52:22.091Z,96190
2015-04-05T20:52:40.520Z,96190
2015-04-05T20:52:58.286Z,96184
2015-04-05T20:53:16.708Z,96195
2015-04-05T20:53:35.286Z,96179
2015-04-05T20:53:53.715Z,96193
2015-04-05T20:54:12.090Z,96187
2015-04-05T20:54:30.496Z,96184
2015-04-05T20:54:48.953Z,96187
2015-04-05T20:55:07.344Z,96185
2015-04-05T20:55:25.750Z,96199
2015-04-05T20:55:44.146Z,96182
2015-04-05T20:56:02.536Z,96182
2015-04-05T20:56:21.005Z,96182
2015-04-05T20:56:39.411Z,96185
2015-04-05T20:56:57.806Z,96182
2015-04-05T20:57:16.353Z,96187
2015-04-05T20:57:34.853Z,96185
2015-04-05T20:57:53.263Z,96190
2015-04-05T20:58:11.669Z,96182
2015-04-05T20:58:30.076Z,96188
2015-04-05T20:58:48.641Z,96188
2015-04-05T20:59:07.125Z,96182
2015-04-05T20:59:25.547Z,96185
2015-04-05T20:59:43.938Z,96191
2015-04-05T21:00:02.363Z,96193
2015-04-05T21:00:20.738Z,96185
2015-04-05T21:00:39.160Z,96188
2015-04-05T21:00:57.569Z,96188
2015-04-05T21:01:15.975Z,96194
2015-04-05T21:01:34.366Z,96188
2015-04-05T21:01:52.791Z,96188
2015-04-05T21:02:11.228Z,96185
2015-04-05T21:02:29.634Z,96180
2015-04-05T21:02:48.072Z,96194
2015-04-05T21:03:06.496Z,96191
2015-04-05T21:03:24.902Z,96185
2015-04-05T21:03:42.652Z,96185
2015-04-05T21:04:01.093Z,96194
2015-04-05T21:04:19.499Z,96188
2015-04-05T21:04:37.968Z,96183
2015-04-05T21:04:56.392Z,96186
2015-04-05T21:05:14.799Z,96191
2015-04-05T21:05:33.314Z,96189
2015-04-05T21:05:51.721Z,96191
2015-04-05T21:06:10.144Z,96183
2015-04-05T21:06:28.644Z,96183
2015-04-05T21:06:47.035Z,96183
2015-04-05T21:07:06.819Z,96189
2015-04-05T21:07:25.210Z,96189
2015-04-05T21:07:43.804Z,96181
2015-04-05T21:08:02.292Z,96194
2015-04-05T21:08:20.745Z,96189
2015-04-05T21:08:39.120Z,96189
2015-04-05T21:08:57.511Z,96192
2015-04-05T21:09:15.903Z,96189
2015-04-05T21:09:34.419Z,96184
2015-04-05T21:09:52.857Z,96189
2015-04-05T21:10:11.281Z,96184
2015-04-05T21:10:29.672Z,96192
2015-04-05T21:10:48.110Z,96186
2015-04-05T21:11:06.594Z,96192
2015-04-05T21:11:25.033Z,96195
2015-04-05T21:11:43.612Z,96189
2015-04-05T21:12:02.018Z,96187
2015-04-05T21:12:20.410Z,96195
2015-04-05T21:12:38.832Z,96195
2015-04-05T21:12:57.207Z,96189
2015-04-05T21:13:15.695Z,96198
2015-04-05T21:13:34.132Z,96189
2015-04-05T21:13:52.585Z,96192
2015-04-05T21:14:11.038Z,96192
2015-04-05T21:14:29.509Z,96192
2015-04-05T21:14:47.900Z,96187
2015-04-05T21:15:06.322Z,96187
2015-04-05T21:15:24.777Z,96190
2015-04-05T21:15:43.261Z,96190
2015-04-05T21:16:01.714Z,96190
2015-04-05T21:16:20.435Z,96195
2015-04-05T21:16:38.857Z,96187
2015-04-05T21:16:57.263Z,96193
2015-04-05T21:17:15.656Z,96195
2015-04-05T21:17:34.031Z,96195
2015-04-05T21:17:52.453Z,96198